Governador Celso Ramos, Brazil
Current Conditions -  °F | °C
As of 1:00 AM on Sunday 21 Dec 2014 (Local Time) from SBFL Reporting Station
Scattered Clouds Scattered Clouds  
Wind Chill: 79°   Ceiling: Unl
Heat Index: 82°   Visibility: 6mi
Dew Point: 73°   Wind: 8mph
Humidity: 83%   Direction: 10°N
Pressure: 29.71"   Gusts: NA
Location:  27.31°S, 48.56°W
Report Text: SBFL 210300Z 01007KT 9999 SCT011 26/23 Q1006
Loading
Personal Weather Stations






























Interactive Weather Map New forecast layout! Learn more

10-Day Weather Forecast

Advertisements
Track Severe Weather on mobile